createdAt,value
2023-04-01T00:02:05.032Z,45.93
2023-04-01T00:04:33.331Z,45.70
2023-04-01T00:07:02.598Z,44.33
2023-04-01T00:09:31.106Z,42.67
2023-04-01T00:11:58.724Z,43.50
2023-04-01T00:14:26.472Z,42.23
2023-04-01T00:16:55.529Z,40.83
2023-04-01T00:19:23.549Z,38.00
2023-04-01T00:21:51.148Z,39.00
2023-04-01T00:24:18.803Z,38.60
2023-04-01T00:26:46.551Z,38.03
2023-04-01T00:29:14.131Z,40.70
2023-04-01T00:31:41.876Z,40.03
2023-04-01T00:34:10.936Z,42.60
2023-04-01T00:36:39.422Z,42.47
2023-04-01T00:39:07.049Z,44.47
2023-04-01T00:41:34.642Z,48.13
2023-04-01T00:44:19.477Z,53.67
2023-04-01T00:46:47.428Z,50.93
2023-04-01T00:49:19.458Z,50.03
2023-04-01T00:51:49.028Z,48.53
2023-04-01T00:54:18.743Z,45.23
2023-04-01T00:56:50.830Z,46.50
2023-04-01T00:59:24.251Z,46.60
2023-04-01T01:01:52.082Z,45.97
2023-04-01T01:04:26.644Z,46.87
2023-04-01T01:07:04.713Z,49.87
2023-04-01T01:09:41.258Z,47.43
2023-04-01T01:12:15.740Z,47.77
2023-04-01T01:14:54.501Z,48.90
2023-04-01T01:17:32.709Z,44.73
2023-04-01T01:20:31.237Z,46.60
2023-04-01T01:23:27.371Z,43.30
2023-04-01T01:26:11.040Z,43.30
2023-04-01T01:28:50.235Z,41.87
2023-04-01T01:31:23.364Z,41.13
2023-04-01T01:34:04.638Z,40.40
2023-04-01T01:36:36.608Z,41.37
2023-04-01T01:39:07.436Z,46.80
2023-04-01T01:41:36.762Z,48.97
2023-04-01T01:44:06.921Z,47.80
2023-04-01T01:46:35.210Z,52.10
2023-04-01T01:49:05.222Z,54.77
2023-04-01T01:51:34.337Z,53.27
2023-04-01T01:54:01.986Z,51.40
2023-04-01T01:56:31.886Z,49.30
2023-04-01T01:59:02.922Z,47.07
2023-04-01T02:01:33.648Z,44.50
2023-04-01T02:04:01.543Z,42.63
2023-04-01T02:06:34.392Z,41.83
2023-04-01T02:09:05.791Z,41.47
2023-04-01T02:11:40.152Z,43.23
2023-04-01T02:14:12.164Z,42.70
2023-04-01T02:16:46.671Z,41.83
2023-04-01T02:19:16.273Z,40.67
2023-04-01T02:21:45.325Z,40.63
2023-04-01T02:24:16.694Z,41.63
2023-04-01T02:26:46.859Z,43.90
2023-04-01T02:29:14.986Z,45.40
2023-04-01T02:31:44.440Z,44.50
2023-04-01T02:34:12.305Z,45.63
2023-04-01T02:36:40.546Z,47.27
2023-04-01T02:39:09.539Z,97.43
2023-04-01T02:41:42.562Z,119.90
2023-04-01T02:44:10.555Z,132.97
2023-04-01T02:46:38.531Z,138.60
2023-04-01T02:49:06.861Z,184.90
2023-04-01T02:51:34.637Z,226.97
2023-04-01T02:54:02.362Z,240.43
2023-04-01T02:56:30.149Z,264.03
2023-04-01T02:58:59.125Z,299.23
2023-04-01T03:01:26.852Z,320.87
2023-04-01T03:03:54.517Z,337.07
2023-04-01T03:06:22.194Z,428.80
2023-04-01T03:08:50.031Z,441.63
2023-04-01T03:11:17.634Z,448.40
2023-04-01T03:13:45.389Z,442.87
2023-04-01T03:16:14.453Z,441.63
2023-04-01T03:18:42.147Z,435.43
2023-04-01T03:21:17.530Z,428.93
2023-04-01T03:23:45.430Z,440.93
2023-04-01T03:26:13.203Z,449.97
2023-04-01T03:28:41.489Z,457.83
2023-04-01T03:31:09.545Z,462.07
2023-04-01T03:33:38.589Z,456.73
2023-04-01T03:36:07.420Z,450.30
2023-04-01T03:38:35.643Z,449.80
2023-04-01T03:41:03.510Z,457.90
2023-04-01T03:43:31.137Z,433.73
2023-04-01T03:45:59.268Z,431.63
2023-04-01T03:48:27.530Z,424.07
2023-04-01T03:50:56.493Z,425.30
2023-04-01T03:53:24.294Z,418.23
2023-04-01T03:55:52.890Z,421.70
2023-04-01T03:58:20.922Z,424.83
2023-04-01T04:00:48.522Z,421.80
2023-04-01T04:03:16.247Z,410.57
2023-04-01T04:05:49.017Z,412.00
2023-04-01T04:08:18.180Z,416.30
2023-04-01T04:10:47.290Z,422.90
2023-04-01T04:13:14.927Z,425.63
2023-04-01T04:15:42.832Z,426.80
2023-04-01T04:18:10.486Z,408.00
2023-04-01T04:20:38.094Z,398.87
2023-04-01T04:23:05.721Z,405.97
2023-04-01T04:25:35.078Z,398.80
2023-04-01T04:28:02.751Z,385.70
2023-04-01T04:30:30.500Z,375.83
2023-04-01T04:32:58.294Z,356.87
2023-04-01T04:35:25.956Z,337.50
2023-04-01T04:37:53.594Z,313.27
2023-04-01T04:40:21.179Z,257.13
2023-04-01T04:42:50.300Z,223.00
2023-04-01T04:45:18.026Z,209.67
2023-04-01T04:47:45.696Z,188.67
2023-04-01T04:50:13.938Z,172.53
2023-04-01T04:52:41.580Z,183.10
2023-04-01T04:55:09.795Z,183.07
2023-04-01T04:57:37.399Z,176.73
2023-04-01T05:00:08.514Z,263.03
2023-04-01T05:02:36.537Z,270.37
2023-04-01T05:05:05.085Z,267.80
2023-04-01T05:07:32.726Z,282.90
2023-04-01T05:10:00.343Z,295.83
2023-04-01T05:12:27.963Z,292.43
2023-04-01T05:14:55.743Z,269.57
2023-04-01T05:17:24.744Z,275.10
2023-04-01T05:19:52.453Z,260.43
2023-04-01T05:22:20.129Z,270.10
2023-04-01T05:24:47.959Z,281.03
2023-04-01T05:27:15.585Z,230.27
2023-04-01T05:29:43.189Z,272.47
2023-04-01T05:32:10.804Z,298.53
2023-04-01T05:34:39.766Z,291.57
2023-04-01T05:37:08.484Z,297.77
2023-04-01T05:39:38.530Z,307.40
2023-04-01T05:42:08.328Z,309.27
2023-04-01T05:44:36.277Z,318.90
2023-04-01T05:47:04.528Z,320.53
2023-04-01T05:49:32.880Z,344.67
2023-04-01T05:52:01.945Z,374.33
2023-04-01T05:54:30.012Z,390.60
2023-04-01T05:56:57.672Z,387.17
2023-04-01T05:59:25.273Z,397.33
2023-04-01T06:01:52.895Z,406.50
2023-04-01T06:04:20.671Z,413.70
2023-04-01T06:06:48.459Z,394.50
2023-04-01T06:09:20.000Z,400.97
2023-04-01T06:12:08.882Z,404.60
2023-04-01T06:14:45.455Z,387.33
2023-04-01T06:17:28.931Z,412.47
2023-04-01T06:20:06.018Z,414.30
2023-04-01T06:22:53.359Z,422.77
2023-04-01T06:25:34.879Z,437.73
2023-04-01T06:28:32.573Z,431.07
2023-04-01T06:31:07.637Z,440.67
2023-04-01T06:33:50.762Z,451.57
2023-04-01T06:36:51.648Z,448.80
2023-04-01T06:39:34.779Z,431.30
2023-04-01T06:42:25.864Z,448.73
2023-04-01T06:45:05.493Z,438.40
2023-04-01T06:47:45.645Z,439.23
2023-04-01T06:50:22.630Z,432.20
2023-04-01T06:52:58.785Z,428.00
2023-04-01T06:55:34.284Z,406.30
2023-04-01T06:58:06.611Z,414.23
2023-04-01T07:00:37.371Z,421.03
2023-04-01T07:03:18.322Z,415.80
2023-04-01T07:05:46.190Z,401.43
2023-04-01T07:08:17.919Z,405.23
2023-04-01T07:10:52.107Z,416.37
2023-04-01T07:13:24.986Z,429.37
2023-04-01T07:16:01.639Z,438.60
2023-04-01T07:18:38.029Z,432.10
2023-04-01T07:21:11.645Z,445.10
2023-04-01T07:23:43.303Z,437.70
2023-04-01T07:26:19.063Z,444.10
2023-04-01T07:28:48.517Z,440.37
2023-04-01T07:31:24.329Z,442.17
2023-04-01T07:34:04.085Z,446.00
2023-04-01T07:36:38.573Z,440.63
2023-04-01T07:39:17.743Z,447.10
2023-04-01T07:41:54.862Z,438.00
2023-04-01T07:44:31.780Z,433.23
2023-04-01T07:47:13.775Z,440.40
2023-04-01T07:49:54.278Z,422.23
2023-04-01T07:52:30.433Z,419.43
2023-04-01T07:55:03.366Z,431.60
2023-04-01T07:57:40.790Z,415.87
2023-04-01T08:00:18.005Z,407.63
2023-04-01T08:02:59.574Z,397.50
2023-04-01T08:05:30.075Z,406.77
2023-04-01T08:08:08.074Z,402.13
2023-04-01T08:10:41.735Z,410.23
2023-04-01T08:13:20.889Z,413.13
2023-04-01T08:15:58.009Z,412.50
2023-04-01T08:18:38.995Z,409.90
2023-04-01T08:21:13.881Z,406.93
2023-04-01T08:23:45.984Z,394.87
2023-04-01T08:26:21.018Z,397.17
2023-04-01T08:28:55.807Z,380.27
2023-04-01T08:31:32.857Z,349.37
2023-04-01T08:34:03.156Z,332.07
2023-04-01T08:36:35.819Z,292.97
2023-04-01T08:39:10.356Z,285.07
2023-04-01T08:41:58.616Z,235.53
2023-04-01T08:44:42.253Z,153.03
2023-04-01T08:47:29.782Z,77.50
2023-04-01T08:50:25.536Z,95.77
2023-04-01T08:53:02.818Z,82.20
2023-04-01T08:55:40.540Z,95.53
2023-04-01T08:58:32.923Z,114.03
2023-04-01T09:01:15.588Z,126.50
2023-04-01T09:04:17.218Z,130.73
2023-04-01T09:06:56.257Z,118.00
2023-04-01T09:09:46.221Z,106.07
2023-04-01T09:12:46.860Z,94.30
2023-04-01T09:15:29.574Z,87.53
2023-04-01T09:18:26.443Z,76.60
2023-04-01T09:21:14.149Z,68.87
2023-04-01T09:24:00.716Z,61.37
2023-04-01T09:26:45.009Z,57.77
2023-04-01T09:29:30.131Z,44.70
2023-04-01T09:32:14.609Z,41.03
2023-04-01T09:34:56.029Z,37.63
2023-04-01T09:37:36.129Z,35.03
2023-04-01T09:40:26.500Z,32.53
2023-04-01T09:43:09.436Z,31.57
2023-04-01T09:45:45.863Z,31.53
2023-04-01T09:48:24.323Z,31.40
2023-04-01T09:51:04.030Z,30.30
2023-04-01T09:53:48.498Z,30.50
2023-04-01T09:56:46.814Z,29.90
2023-04-01T09:59:47.255Z,31.50
2023-04-01T10:02:51.008Z,31.20
2023-04-01T10:05:51.845Z,30.80
2023-04-01T10:08:54.526Z,30.97
2023-04-01T10:11:44.151Z,30.87
2023-04-01T10:14:37.221Z,31.10
2023-04-01T10:17:51.691Z,31.47
2023-04-01T10:20:38.584Z,31.47
2023-04-01T10:23:20.762Z,32.80
2023-04-01T10:26:12.991Z,30.03
2023-04-01T10:29:03.772Z,30.30
2023-04-01T10:31:57.550Z,29.33
2023-04-01T10:35:05.169Z,30.30
2023-04-01T10:37:50.003Z,30.37
2023-04-01T10:40:47.646Z,30.10
2023-04-01T10:43:56.853Z,30.20
2023-04-01T10:46:58.240Z,30.13
2023-04-01T10:49:49.800Z,31.27
2023-04-01T10:53:01.682Z,30.37
2023-04-01T10:55:54.061Z,30.67
2023-04-01T10:58:57.786Z,28.90
2023-04-01T11:02:10.159Z,29.20
2023-04-01T11:08:16.661Z,28.87
2023-04-01T11:11:04.930Z,30.27
2023-04-01T11:14:01.468Z,31.33
2023-04-01T11:17:03.752Z,28.87
2023-04-01T11:19:53.073Z,30.40
2023-04-01T11:22:38.252Z,29.03
2023-04-01T11:25:19.978Z,29.50
2023-04-01T11:28:18.664Z,28.70
2023-04-01T11:31:13.822Z,27.40
2023-04-01T11:33:51.577Z,28.30
2023-04-01T11:36:31.359Z,28.23
2023-04-01T11:39:12.638Z,30.03
2023-04-01T11:41:45.610Z,28.17
2023-04-01T11:44:19.627Z,30.27
2023-04-01T11:47:05.739Z,28.93
2023-04-01T11:49:44.122Z,29.97
2023-04-01T11:52:23.878Z,29.23
2023-04-01T11:55:14.680Z,29.07
2023-04-01T11:57:58.308Z,27.73
2023-04-01T12:00:50.664Z,27.47
2023-04-01T12:03:44.090Z,30.17
2023-04-01T12:06:21.472Z,28.67
2023-04-01T12:08:57.943Z,28.10
2023-04-01T12:11:33.043Z,29.60
2023-04-01T12:14:08.554Z,28.43
2023-04-01T12:16:51.124Z,29.80
2023-04-01T12:19:28.865Z,29.30
2023-04-01T12:22:16.815Z,28.77
2023-04-01T12:24:49.896Z,28.60
2023-04-01T12:27:31.742Z,28.60
2023-04-01T12:30:40.382Z,29.47
2023-04-01T12:33:33.255Z,28.30
2023-04-01T12:36:12.257Z,28.77
2023-04-01T12:38:53.920Z,28.50
2023-04-01T12:41:35.064Z,28.43
2023-04-01T12:44:28.829Z,28.40
2023-04-01T12:47:20.144Z,28.97
2023-04-01T12:50:03.412Z,29.33
2023-04-01T12:52:45.366Z,28.73
2023-04-01T12:55:39.755Z,28.93
2023-04-01T12:58:32.772Z,27.70
2023-04-01T13:01:21.546Z,27.83
2023-04-01T13:04:04.677Z,28.17
2023-04-01T13:06:43.477Z,29.83
2023-04-01T13:09:26.607Z,28.10
2023-04-01T13:12:17.352Z,29.13
2023-04-01T13:15:21.357Z,27.67
2023-04-01T13:17:55.549Z,27.67
2023-04-01T13:20:36.708Z,28.47
2023-04-01T13:23:19.523Z,28.47
2023-04-01T13:26:07.109Z,27.43
2023-04-01T13:28:48.578Z,27.33
2023-04-01T13:31:33.122Z,29.30
2023-04-01T13:34:15.449Z,28.37
2023-04-01T13:36:56.952Z,27.23
2023-04-01T13:39:35.233Z,27.83
2023-04-01T13:42:16.919Z,28.07
2023-04-01T13:44:50.051Z,29.07
2023-04-01T13:47:29.891Z,27.73
2023-04-01T13:50:42.186Z,29.03
2023-04-01T13:53:42.751Z,27.47
2023-04-01T13:56:18.575Z,27.90
2023-04-01T13:58:59.784Z,28.23
2023-04-01T14:01:37.654Z,28.73
2023-04-01T14:04:32.804Z,27.97
2023-04-01T14:07:10.128Z,27.90
2023-04-01T14:10:07.350Z,27.67
2023-04-01T14:12:42.458Z,27.97
2023-04-01T14:15:29.020Z,26.70
2023-04-01T14:18:16.028Z,26.23
2023-04-01T14:20:52.796Z,25.63
2023-04-01T14:23:44.778Z,26.03
2023-04-01T14:26:33.902Z,26.50
2023-04-01T14:29:14.726Z,28.03
2023-04-01T14:31:50.301Z,27.80
2023-04-01T14:34:31.727Z,27.53
2023-04-01T14:37:14.018Z,28.30
2023-04-01T14:40:14.707Z,27.83
2023-04-01T14:43:03.333Z,27.27
2023-04-01T14:46:07.213Z,29.60
2023-04-01T14:48:38.297Z,27.23
2023-04-01T14:51:17.096Z,28.60
2023-04-01T14:53:55.430Z,28.17
2023-04-01T14:56:38.145Z,27.43
2023-04-01T14:59:11.296Z,27.90
2023-04-01T15:01:49.231Z,27.50
2023-04-01T15:05:02.596Z,27.87
2023-04-01T15:08:07.703Z,28.10
2023-04-01T15:11:04.102Z,28.90
2023-04-01T15:13:49.094Z,28.60
2023-04-01T15:16:27.642Z,30.40
2023-04-01T15:19:03.621Z,32.07
2023-04-01T15:21:56.134Z,29.93
2023-04-01T15:24:28.463Z,29.13
2023-04-01T15:27:13.348Z,28.93
2023-04-01T15:30:05.884Z,29.40
2023-04-01T15:32:47.727Z,29.20
2023-04-01T15:35:28.537Z,30.47
2023-04-01T15:38:00.845Z,30.33
2023-04-01T15:40:37.169Z,29.53
2023-04-01T15:43:18.915Z,28.23
2023-04-01T15:45:58.029Z,29.37
2023-04-01T15:48:36.376Z,28.10
2023-04-01T15:51:18.441Z,30.33
2023-04-01T15:53:58.798Z,29.00
2023-04-01T15:56:51.786Z,29.17
2023-04-01T15:59:35.661Z,27.43
2023-04-01T16:02:16.043Z,26.90
2023-04-01T16:04:50.550Z,26.77
2023-04-01T16:08:01.272Z,26.20
2023-04-01T16:10:45.850Z,27.60
2023-04-01T16:13:30.655Z,26.60
2023-04-01T16:16:09.597Z,26.73
2023-04-01T16:19:07.404Z,26.23
2023-04-01T16:21:45.430Z,26.37
2023-04-01T16:24:19.820Z,26.77
2023-04-01T16:26:55.525Z,26.47
2023-04-01T16:29:34.441Z,26.40
2023-04-01T16:32:20.049Z,26.40
2023-04-01T16:34:56.825Z,25.17
2023-04-01T16:37:35.956Z,26.27
2023-04-01T16:40:17.214Z,26.80
2023-04-01T16:42:51.979Z,25.77
2023-04-01T16:45:31.883Z,26.07
2023-04-01T16:48:08.480Z,25.33
2023-04-01T16:50:48.340Z,26.63
2023-04-01T16:53:19.761Z,26.77
2023-04-01T16:55:52.246Z,25.63
2023-04-01T16:58:25.538Z,26.33
2023-04-01T17:01:01.058Z,25.80
2023-04-01T17:03:34.300Z,24.10
2023-04-01T17:06:26.369Z,24.77
2023-04-01T17:09:13.187Z,24.90
2023-04-01T17:11:46.113Z,25.97
2023-04-01T17:14:24.705Z,25.33
2023-04-01T17:17:10.467Z,25.67
2023-04-01T17:20:08.026Z,24.40
2023-04-01T17:22:43.650Z,25.17
2023-04-01T17:25:34.328Z,24.93
2023-04-01T17:28:13.539Z,25.20
2023-04-01T17:30:49.705Z,25.10
2023-04-01T17:33:37.937Z,25.90
2023-04-01T17:36:13.763Z,26.70
2023-04-01T17:38:58.733Z,26.17
2023-04-01T17:41:38.510Z,25.10
2023-04-01T17:44:21.445Z,26.17
2023-04-01T17:47:10.161Z,25.07
2023-04-01T17:49:46.706Z,25.50
2023-04-01T17:52:25.834Z,25.57
2023-04-01T17:55:01.202Z,25.53
2023-04-01T17:57:41.876Z,25.63
2023-04-01T18:00:22.983Z,24.87
2023-04-01T18:03:02.582Z,25.57
2023-04-01T18:05:47.309Z,25.03
2023-04-01T18:08:19.527Z,25.63
2023-04-01T18:11:00.952Z,24.83
2023-04-01T18:14:00.666Z,24.47
2023-04-01T18:16:58.043Z,25.87
2023-04-01T18:19:34.007Z,24.90
2023-04-01T18:22:11.696Z,23.90
2023-04-01T18:24:45.557Z,24.20
2023-04-01T18:27:19.564Z,24.80
2023-04-01T18:29:53.317Z,26.17
2023-04-01T18:32:30.975Z,25.27
2023-04-01T18:35:04.430Z,25.00
2023-04-01T18:37:39.099Z,25.57
2023-04-01T18:40:17.577Z,24.83
2023-04-01T18:42:55.109Z,25.00
2023-04-01T18:45:29.372Z,24.60
2023-04-01T18:48:08.699Z,25.73
2023-04-01T18:50:43.010Z,24.77
2023-04-01T18:53:24.254Z,25.13
2023-04-01T18:55:55.019Z,25.07
2023-04-01T18:58:35.894Z,24.30
2023-04-01T19:01:29.074Z,25.40
2023-04-01T19:04:10.779Z,26.20
2023-04-01T19:06:48.632Z,25.40
2023-04-01T19:09:27.595Z,25.87
2023-04-01T19:12:16.547Z,25.80
2023-04-01T19:14:55.848Z,25.40
2023-04-01T19:17:35.147Z,25.40
2023-04-01T19:20:14.195Z,24.67
2023-04-01T19:23:04.432Z,26.07
2023-04-01T19:25:39.040Z,26.20
2023-04-01T19:28:23.689Z,26.60
2023-04-01T19:30:58.352Z,28.27
2023-04-01T19:33:45.044Z,27.17
2023-04-01T19:36:18.449Z,27.00
2023-04-01T19:38:57.905Z,25.13
2023-04-01T19:41:38.120Z,25.47
2023-04-01T19:44:28.034Z,24.80
2023-04-01T19:47:00.699Z,25.10
2023-04-01T19:49:52.445Z,25.13
2023-04-01T19:52:25.931Z,26.17
2023-04-01T19:55:00.551Z,26.30
2023-04-01T19:57:41.500Z,25.03
2023-04-01T20:00:18.117Z,25.70
2023-04-01T20:03:02.048Z,26.77
2023-04-01T20:05:42.139Z,25.80
2023-04-01T20:08:17.824Z,26.20
2023-04-01T20:10:57.440Z,25.83
2023-04-01T20:13:33.591Z,25.90
2023-04-01T20:16:05.393Z,26.20
2023-04-01T20:18:41.165Z,26.70
2023-04-01T20:21:20.722Z,27.30
2023-04-01T20:23:54.779Z,26.40
2023-04-01T20:26:25.241Z,27.93
2023-04-01T20:29:13.689Z,27.07
2023-04-01T20:31:43.751Z,26.70
2023-04-01T20:34:34.486Z,26.47
2023-04-01T20:37:32.869Z,27.70
2023-04-01T20:40:26.017Z,27.83
2023-04-01T20:43:19.028Z,27.00
2023-04-01T20:45:57.428Z,27.93
2023-04-01T20:48:51.196Z,27.37
2023-04-01T20:51:24.148Z,28.23
2023-04-01T20:54:00.732Z,27.80
2023-04-01T20:56:38.300Z,29.03
2023-04-01T20:59:26.792Z,29.20
2023-04-01T21:02:10.394Z,26.83
2023-04-01T21:04:53.018Z,27.10
2023-04-01T21:07:28.323Z,28.33
2023-04-01T21:10:14.350Z,27.83
2023-04-01T21:12:51.369Z,27.33
2023-04-01T21:15:43.212Z,27.77
2023-04-01T21:18:33.111Z,26.97
2023-04-01T21:21:19.949Z,29.43
2023-04-01T21:23:59.274Z,27.33
2023-04-01T21:26:43.765Z,27.60
2023-04-01T21:29:44.372Z,27.80
2023-04-01T21:32:33.772Z,27.93
2023-04-01T21:35:10.643Z,28.20
2023-04-01T21:37:51.655Z,28.17
2023-04-01T21:40:42.740Z,27.37
2023-04-01T21:43:22.840Z,27.40
2023-04-01T21:46:18.439Z,27.70
2023-04-01T21:49:01.256Z,27.73
2023-04-01T21:51:55.699Z,29.20
2023-04-01T21:54:52.797Z,28.23
2023-04-01T21:57:50.854Z,27.97
2023-04-01T22:00:26.078Z,27.70
2023-04-01T22:03:35.695Z,28.10
2023-04-01T22:06:13.834Z,28.07
2023-04-01T22:08:53.153Z,27.73
2023-04-01T22:11:33.630Z,27.40
2023-04-01T22:14:08.484Z,27.70
2023-04-01T22:16:41.621Z,28.60
2023-04-01T22:19:20.966Z,27.60
2023-04-01T22:22:02.055Z,28.10
2023-04-01T22:24:39.483Z,28.67
2023-04-01T22:27:16.476Z,29.47
2023-04-01T22:29:54.370Z,28.73
2023-04-01T22:32:27.997Z,28.33
2023-04-01T22:35:04.596Z,28.10
2023-04-01T22:37:42.716Z,27.60
2023-04-01T22:40:25.453Z,28.23
2023-04-01T22:42:58.209Z,28.37
2023-04-01T22:46:00.320Z,28.57
2023-04-01T22:48:34.689Z,27.90
2023-04-01T22:51:08.069Z,27.80
2023-04-01T22:53:49.337Z,27.70
2023-04-01T22:56:24.086Z,27.57
2023-04-01T22:58:58.494Z,26.40
2023-04-01T23:01:30.653Z,27.27
2023-04-01T23:04:00.994Z,26.57
2023-04-01T23:06:31.020Z,26.27
2023-04-01T23:09:08.891Z,26.40
2023-04-01T23:11:46.417Z,25.00
2023-04-01T23:14:37.952Z,26.90
2023-04-01T23:17:18.428Z,25.20
2023-04-01T23:19:54.858Z,26.60
2023-04-01T23:22:29.849Z,26.60
2023-04-01T23:25:07.021Z,26.77
2023-04-01T23:27:42.796Z,26.13
2023-04-01T23:30:49.047Z,26.50
2023-04-01T23:33:23.707Z,28.00
2023-04-01T23:35:52.482Z,26.97
2023-04-01T23:38:21.299Z,25.70
2023-04-01T23:40:50.861Z,26.73
2023-04-01T23:43:26.655Z,26.13
2023-04-01T23:45:55.375Z,26.73
2023-04-01T23:48:30.066Z,25.73
2023-04-01T23:50:59.057Z,27.30
2023-04-01T23:53:30.435Z,26.30
2023-04-01T23:55:58.108Z,26.43
2023-04-01T23:58:28.712Z,27.70
